sensor_id;sensor_type;location;lat;lon;timestamp;P1;durP1;ratioP1;P2;durP2;ratioP2
67941;SDS011;54731;42.600;23.476;2023-05-10T00:00:34;5.40;;;4.23;;
67941;SDS011;54731;42.600;23.476;2023-05-10T00:03:00;6.70;;;4.80;;
67941;SDS011;54731;42.600;23.476;2023-05-10T00:05:25;5.57;;;4.30;;
67941;SDS011;54731;42.600;23.476;2023-05-10T00:07:50;5.73;;;4.60;;
67941;SDS011;54731;42.600;23.476;2023-05-10T00:10:16;5.13;;;4.00;;
67941;SDS011;54731;42.600;23.476;2023-05-10T00:12:41;7.10;;;4.90;;
67941;SDS011;54731;42.600;23.476;2023-05-10T00:15:07;5.17;;;4.60;;
67941;SDS011;54731;42.600;23.476;2023-05-10T00:17:33;5.25;;;4.65;;
67941;SDS011;54731;42.600;23.476;2023-05-10T00:19:58;5.93;;;4.47;;
67941;SDS011;54731;42.600;23.476;2023-05-10T00:22:24;5.30;;;4.80;;
67941;SDS011;54731;42.600;23.476;2023-05-10T00:24:49;4.78;;;4.30;;
67941;SDS011;54731;42.600;23.476;2023-05-10T00:27:14;7.47;;;5.10;;
67941;SDS011;54731;42.600;23.476;2023-05-10T00:29:40;5.50;;;4.67;;
67941;SDS011;54731;42.600;23.476;2023-05-10T00:32:05;5.97;;;5.20;;
67941;SDS011;54731;42.600;23.476;2023-05-10T00:34:31;5.37;;;4.87;;
67941;SDS011;54731;42.600;23.476;2023-05-10T00:36:56;8.13;;;5.40;;
67941;SDS011;54731;42.600;23.476;2023-05-10T00:39:21;6.10;;;5.03;;
67941;SDS011;54731;42.600;23.476;2023-05-10T00:41:47;6.23;;;5.23;;
67941;SDS011;54731;42.600;23.476;2023-05-10T00:44:12;7.30;;;4.70;;
67941;SDS011;54731;42.600;23.476;2023-05-10T00:46:37;6.57;;;5.17;;
67941;SDS011;54731;42.600;23.476;2023-05-10T00:49:03;5.90;;;4.50;;
67941;SDS011;54731;42.600;23.476;2023-05-10T00:51:28;5.05;;;4.55;;
67941;SDS011;54731;42.600;23.476;2023-05-10T00:53:54;4.13;;;3.70;;
67941;SDS011;54731;42.600;23.476;2023-05-10T00:56:19;7.83;;;4.00;;
67941;SDS011;54731;42.600;23.476;2023-05-10T00:58:45;5.67;;;4.10;;
67941;SDS011;54731;42.600;23.476;2023-05-10T01:01:10;6.10;;;4.07;;
67941;SDS011;54731;42.600;23.476;2023-05-10T01:03:36;4.35;;;3.95;;
67941;SDS011;54731;42.600;23.476;2023-05-10T01:06:02;6.20;;;4.22;;
67941;SDS011;54731;42.600;23.476;2023-05-10T01:08:27;4.37;;;3.07;;
67941;SDS011;54731;42.600;23.476;2023-05-10T01:10:53;4.53;;;4.07;;
67941;SDS011;54731;42.600;23.476;2023-05-10T01:13:40;4.93;;;4.43;;
67941;SDS011;54731;42.600;23.476;2023-05-10T01:16:06;4.18;;;3.67;;
67941;SDS011;54731;42.600;23.476;2023-05-10T01:18:36;5.40;;;4.67;;
67941;SDS011;54731;42.600;23.476;2023-05-10T01:29:48;4.30;;;2.90;;
67941;SDS011;54731;42.600;23.476;2023-05-10T01:33:00;4.00;;;3.50;;
67941;SDS011;54731;42.600;23.476;2023-05-10T01:41:24;4.43;;;3.83;;
67941;SDS011;54731;42.600;23.476;2023-05-10T01:44:04;4.63;;;3.58;;
67941;SDS011;54731;42.600;23.476;2023-05-10T01:46:38;3.80;;;3.23;;
67941;SDS011;54731;42.600;23.476;2023-05-10T01:49:09;3.70;;;3.40;;
67941;SDS011;54731;42.600;23.476;2023-05-10T01:51:44;7.82;;;3.45;;
67941;SDS011;54731;42.600;23.476;2023-05-10T01:54:12;4.32;;;3.78;;
67941;SDS011;54731;42.600;23.476;2023-05-10T01:56:39;4.50;;;3.70;;
67941;SDS011;54731;42.600;23.476;2023-05-10T01:59:08;5.17;;;3.87;;
67941;SDS011;54731;42.600;23.476;2023-05-10T02:01:37;6.82;;;3.90;;
67941;SDS011;54731;42.600;23.476;2023-05-10T02:04:03;5.25;;;3.53;;
67941;SDS011;54731;42.600;23.476;2023-05-10T02:06:30;5.20;;;3.75;;
67941;SDS011;54731;42.600;23.476;2023-05-10T02:08:56;7.07;;;3.95;;
67941;SDS011;54731;42.600;23.476;2023-05-10T02:11:22;6.07;;;3.67;;
67941;SDS011;54731;42.600;23.476;2023-05-10T02:13:49;6.90;;;3.70;;
67941;SDS011;54731;42.600;23.476;2023-05-10T02:16:16;3.80;;;3.05;;
67941;SDS011;54731;42.600;23.476;2023-05-10T02:18:43;5.95;;;3.83;;
67941;SDS011;54731;42.600;23.476;2023-05-10T02:21:09;6.05;;;3.78;;
67941;SDS011;54731;42.600;23.476;2023-05-10T02:23:36;7.13;;;4.10;;
67941;SDS011;54731;42.600;23.476;2023-05-10T02:26:02;4.75;;;3.75;;
67941;SDS011;54731;42.600;23.476;2023-05-10T02:28:29;8.15;;;3.80;;
67941;SDS011;54731;42.600;23.476;2023-05-10T02:30:57;8.63;;;3.80;;
67941;SDS011;54731;42.600;23.476;2023-05-10T02:33:22;5.80;;;4.20;;
67941;SDS011;54731;42.600;23.476;2023-05-10T02:35:49;7.20;;;4.32;;
67941;SDS011;54731;42.600;23.476;2023-05-10T02:38:15;7.20;;;4.35;;
67941;SDS011;54731;42.600;23.476;2023-05-10T02:40:42;6.07;;;3.60;;
67941;SDS011;54731;42.600;23.476;2023-05-10T02:43:09;6.47;;;3.45;;
67941;SDS011;54731;42.600;23.476;2023-05-10T02:45:37;5.38;;;3.72;;
67941;SDS011;54731;42.600;23.476;2023-05-10T02:48:03;5.07;;;3.58;;
67941;SDS011;54731;42.600;23.476;2023-05-10T02:50:29;5.28;;;3.85;;
67941;SDS011;54731;42.600;23.476;2023-05-10T02:52:59;6.10;;;3.67;;
67941;SDS011;54731;42.600;23.476;2023-05-10T02:55:26;5.67;;;3.53;;
67941;SDS011;54731;42.600;23.476;2023-05-10T02:57:56;19.15;;;7.05;;
67941;SDS011;54731;42.600;23.476;2023-05-10T03:00:26;7.53;;;4.18;;
67941;SDS011;54731;42.600;23.476;2023-05-10T03:02:52;9.63;;;4.30;;
67941;SDS011;54731;42.600;23.476;2023-05-10T03:05:18;8.70;;;4.82;;
67941;SDS011;54731;42.600;23.476;2023-05-10T03:07:44;8.98;;;5.75;;
67941;SDS011;54731;42.600;23.476;2023-05-10T03:10:10;6.07;;;3.90;;
67941;SDS011;54731;42.600;23.476;2023-05-10T03:17:57;7.63;;;4.15;;
67941;SDS011;54731;42.600;23.476;2023-05-10T03:20:34;8.40;;;4.63;;
67941;SDS011;54731;42.600;23.476;2023-05-10T03:25:42;6.03;;;3.80;;
67941;SDS011;54731;42.600;23.476;2023-05-10T03:28:08;5.73;;;3.50;;
67941;SDS011;54731;42.600;23.476;2023-05-10T03:30:34;5.43;;;3.83;;
67941;SDS011;54731;42.600;23.476;2023-05-10T03:33:06;8.65;;;5.43;;
67941;SDS011;54731;42.600;23.476;2023-05-10T03:35:31;6.47;;;4.33;;
67941;SDS011;54731;42.600;23.476;2023-05-10T03:37:57;6.53;;;4.72;;
67941;SDS011;54731;42.600;23.476;2023-05-10T03:40:22;8.33;;;6.20;;
67941;SDS011;54731;42.600;23.476;2023-05-10T03:42:48;15.50;;;10.07;;
67941;SDS011;54731;42.600;23.476;2023-05-10T03:45:13;7.05;;;4.82;;
67941;SDS011;54731;42.600;23.476;2023-05-10T03:47:38;7.37;;;4.70;;
67941;SDS011;54731;42.600;23.476;2023-05-10T03:50:04;7.10;;;4.40;;
67941;SDS011;54731;42.600;23.476;2023-05-10T03:52:30;6.95;;;4.20;;
67941;SDS011;54731;42.600;23.476;2023-05-10T03:54:55;7.00;;;4.20;;
67941;SDS011;54731;42.600;23.476;2023-05-10T03:57:20;9.70;;;4.50;;
67941;SDS011;54731;42.600;23.476;2023-05-10T03:59:46;5.43;;;4.00;;
67941;SDS011;54731;42.600;23.476;2023-05-10T04:02:11;5.97;;;4.00;;
67941;SDS011;54731;42.600;23.476;2023-05-10T04:04:36;6.40;;;4.17;;
67941;SDS011;54731;42.600;23.476;2023-05-10T04:07:02;6.50;;;4.33;;
67941;SDS011;54731;42.600;23.476;2023-05-10T04:09:27;9.43;;;6.70;;
67941;SDS011;54731;42.600;23.476;2023-05-10T04:11:53;7.57;;;5.03;;
67941;SDS011;54731;42.600;23.476;2023-05-10T04:14:18;10.67;;;6.23;;
67941;SDS011;54731;42.600;23.476;2023-05-10T04:16:43;14.03;;;10.10;;
67941;SDS011;54731;42.600;23.476;2023-05-10T04:19:08;13.53;;;7.67;;
67941;SDS011;54731;42.600;23.476;2023-05-10T04:21:34;9.67;;;7.50;;
67941;SDS011;54731;42.600;23.476;2023-05-10T04:23:59;9.03;;;6.70;;
67941;SDS011;54731;42.600;23.476;2023-05-10T04:26:24;14.97;;;9.03;;
67941;SDS011;54731;42.600;23.476;2023-05-10T04:28:50;9.13;;;6.63;;
67941;SDS011;54731;42.600;23.476;2023-05-10T04:31:15;15.93;;;9.03;;
67941;SDS011;54731;42.600;23.476;2023-05-10T04:33:40;19.37;;;9.50;;
67941;SDS011;54731;42.600;23.476;2023-05-10T04:36:06;8.17;;;7.23;;
67941;SDS011;54731;42.600;23.476;2023-05-10T04:38:31;6.57;;;5.40;;
67941;SDS011;54731;42.600;23.476;2023-05-10T04:41:06;7.07;;;4.78;;
67941;SDS011;54731;42.600;23.476;2023-05-10T04:43:33;10.98;;;5.95;;
67941;SDS011;54731;42.600;23.476;2023-05-10T04:45:58;13.98;;;8.63;;
67941;SDS011;54731;42.600;23.476;2023-05-10T04:48:24;9.53;;;6.00;;
67941;SDS011;54731;42.600;23.476;2023-05-10T04:50:49;10.27;;;5.93;;
67941;SDS011;54731;42.600;23.476;2023-05-10T04:53:14;12.70;;;7.60;;
67941;SDS011;54731;42.600;23.476;2023-05-10T04:55:40;11.47;;;6.53;;
67941;SDS011;54731;42.600;23.476;2023-05-10T04:58:05;24.87;;;8.77;;
67941;SDS011;54731;42.600;23.476;2023-05-10T05:00:30;14.20;;;6.50;;
67941;SDS011;54731;42.600;23.476;2023-05-10T05:02:55;10.20;;;6.95;;
67941;SDS011;54731;42.600;23.476;2023-05-10T05:05:21;36.37;;;11.27;;
67941;SDS011;54731;42.600;23.476;2023-05-10T05:07:46;14.63;;;7.43;;
67941;SDS011;54731;42.600;23.476;2023-05-10T05:10:11;21.33;;;9.13;;
67941;SDS011;54731;42.600;23.476;2023-05-10T05:12:37;53.73;;;18.77;;
67941;SDS011;54731;42.600;23.476;2023-05-10T05:15:02;31.03;;;17.40;;
67941;SDS011;54731;42.600;23.476;2023-05-10T05:17:29;18.37;;;9.40;;
67941;SDS011;54731;42.600;23.476;2023-05-10T05:19:55;33.47;;;16.23;;
67941;SDS011;54731;42.600;23.476;2023-05-10T05:22:20;53.40;;;23.70;;
67941;SDS011;54731;42.600;23.476;2023-05-10T05:24:45;25.73;;;15.53;;
67941;SDS011;54731;42.600;23.476;2023-05-10T05:27:10;16.90;;;11.10;;
67941;SDS011;54731;42.600;23.476;2023-05-10T05:29:36;20.45;;;11.15;;
67941;SDS011;54731;42.600;23.476;2023-05-10T05:32:01;24.63;;;12.63;;
67941;SDS011;54731;42.600;23.476;2023-05-10T05:34:26;22.80;;;11.77;;
67941;SDS011;54731;42.600;23.476;2023-05-10T05:36:52;24.93;;;12.87;;
67941;SDS011;54731;42.600;23.476;2023-05-10T05:39:17;16.43;;;10.13;;
67941;SDS011;54731;42.600;23.476;2023-05-10T05:41:42;22.43;;;12.67;;
67941;SDS011;54731;42.600;23.476;2023-05-10T05:44:08;25.43;;;15.83;;
67941;SDS011;54731;42.600;23.476;2023-05-10T05:46:33;19.77;;;10.47;;
67941;SDS011;54731;42.600;23.476;2023-05-10T05:48:58;10.15;;;6.75;;
67941;SDS011;54731;42.600;23.476;2023-05-10T05:51:24;14.93;;;9.17;;
67941;SDS011;54731;42.600;23.476;2023-05-10T05:53:49;16.10;;;9.17;;
67941;SDS011;54731;42.600;23.476;2023-05-10T05:56:14;16.77;;;9.30;;
67941;SDS011;54731;42.600;23.476;2023-05-10T05:58:40;13.27;;;7.17;;
67941;SDS011;54731;42.600;23.476;2023-05-10T06:01:05;13.57;;;7.23;;
67941;SDS011;54731;42.600;23.476;2023-05-10T06:03:30;10.57;;;6.13;;
67941;SDS011;54731;42.600;23.476;2023-05-10T06:05:56;9.80;;;6.87;;
67941;SDS011;54731;42.600;23.476;2023-05-10T06:08:21;9.23;;;7.20;;
67941;SDS011;54731;42.600;23.476;2023-05-10T06:10:46;12.38;;;7.68;;
67941;SDS011;54731;42.600;23.476;2023-05-10T06:13:12;20.93;;;10.93;;
67941;SDS011;54731;42.600;23.476;2023-05-10T06:15:37;18.30;;;9.73;;
67941;SDS011;54731;42.600;23.476;2023-05-10T06:18:03;11.27;;;6.70;;
67941;SDS011;54731;42.600;23.476;2023-05-10T06:20:28;17.05;;;10.00;;
67941;SDS011;54731;42.600;23.476;2023-05-10T06:22:54;17.13;;;9.88;;
67941;SDS011;54731;42.600;23.476;2023-05-10T06:25:19;11.90;;;7.57;;
67941;SDS011;54731;42.600;23.476;2023-05-10T06:27:44;10.47;;;7.37;;
67941;SDS011;54731;42.600;23.476;2023-05-10T06:30:10;19.70;;;9.83;;
67941;SDS011;54731;42.600;23.476;2023-05-10T06:32:35;15.13;;;7.17;;
67941;SDS011;54731;42.600;23.476;2023-05-10T06:35:00;8.45;;;5.95;;
67941;SDS011;54731;42.600;23.476;2023-05-10T06:37:26;11.90;;;7.03;;
67941;SDS011;54731;42.600;23.476;2023-05-10T06:39:51;9.67;;;6.53;;
67941;SDS011;54731;42.600;23.476;2023-05-10T06:42:16;12.50;;;5.87;;
67941;SDS011;54731;42.600;23.476;2023-05-10T06:44:42;14.10;;;6.80;;
67941;SDS011;54731;42.600;23.476;2023-05-10T06:47:07;8.67;;;5.83;;
67941;SDS011;54731;42.600;23.476;2023-05-10T06:49:32;9.80;;;6.57;;
67941;SDS011;54731;42.600;23.476;2023-05-10T06:51:57;11.20;;;7.07;;
67941;SDS011;54731;42.600;23.476;2023-05-10T06:54:23;12.17;;;7.20;;
67941;SDS011;54731;42.600;23.476;2023-05-10T06:56:48;14.35;;;6.97;;
67941;SDS011;54731;42.600;23.476;2023-05-10T06:59:14;11.53;;;6.60;;
67941;SDS011;54731;42.600;23.476;2023-05-10T07:01:39;11.63;;;6.73;;
67941;SDS011;54731;42.600;23.476;2023-05-10T07:04:04;13.20;;;7.27;;
67941;SDS011;54731;42.600;23.476;2023-05-10T07:06:30;17.10;;;7.63;;
67941;SDS011;54731;42.600;23.476;2023-05-10T07:08:55;12.73;;;8.23;;
67941;SDS011;54731;42.600;23.476;2023-05-10T07:11:20;10.30;;;7.82;;
67941;SDS011;54731;42.600;23.476;2023-05-10T07:13:46;14.98;;;8.68;;
67941;SDS011;54731;42.600;23.476;2023-05-10T07:16:11;9.77;;;6.80;;
67941;SDS011;54731;42.600;23.476;2023-05-10T07:18:36;14.33;;;8.47;;
67941;SDS011;54731;42.600;23.476;2023-05-10T07:21:01;11.17;;;7.37;;
67941;SDS011;54731;42.600;23.476;2023-05-10T07:23:27;19.37;;;9.03;;
67941;SDS011;54731;42.600;23.476;2023-05-10T07:25:52;19.90;;;8.47;;
67941;SDS011;54731;42.600;23.476;2023-05-10T07:28:18;12.70;;;7.47;;
67941;SDS011;54731;42.600;23.476;2023-05-10T07:30:43;15.18;;;9.05;;
67941;SDS011;54731;42.600;23.476;2023-05-10T07:33:09;16.60;;;7.90;;
67941;SDS011;54731;42.600;23.476;2023-05-10T07:35:36;13.88;;;8.00;;
67941;SDS011;54731;42.600;23.476;2023-05-10T07:38:01;11.63;;;7.20;;
67941;SDS011;54731;42.600;23.476;2023-05-10T07:40:27;9.57;;;6.93;;
67941;SDS011;54731;42.600;23.476;2023-05-10T07:42:53;8.60;;;6.80;;
67941;SDS011;54731;42.600;23.476;2023-05-10T07:45:18;9.37;;;6.97;;
67941;SDS011;54731;42.600;23.476;2023-05-10T07:47:43;12.97;;;7.63;;
67941;SDS011;54731;42.600;23.476;2023-05-10T07:50:08;13.57;;;7.53;;
67941;SDS011;54731;42.600;23.476;2023-05-10T07:52:34;16.30;;;9.60;;
67941;SDS011;54731;42.600;23.476;2023-05-10T07:54:59;12.63;;;7.73;;
67941;SDS011;54731;42.600;23.476;2023-05-10T07:57:24;16.77;;;9.97;;
67941;SDS011;54731;42.600;23.476;2023-05-10T07:59:50;16.93;;;8.20;;
67941;SDS011;54731;42.600;23.476;2023-05-10T08:02:15;13.87;;;8.17;;
67941;SDS011;54731;42.600;23.476;2023-05-10T08:04:40;15.47;;;8.73;;
67941;SDS011;54731;42.600;23.476;2023-05-10T08:07:06;13.23;;;8.33;;
67941;SDS011;54731;42.600;23.476;2023-05-10T08:09:31;15.63;;;7.73;;
67941;SDS011;54731;42.600;23.476;2023-05-10T08:11:56;9.65;;;6.85;;
67941;SDS011;54731;42.600;23.476;2023-05-10T08:14:22;10.23;;;7.20;;
67941;SDS011;54731;42.600;23.476;2023-05-10T08:16:47;19.87;;;9.17;;
67941;SDS011;54731;42.600;23.476;2023-05-10T08:19:12;11.57;;;7.53;;
67941;SDS011;54731;42.600;23.476;2023-05-10T08:21:37;12.23;;;7.17;;
67941;SDS011;54731;42.600;23.476;2023-05-10T08:24:03;11.90;;;7.67;;
67941;SDS011;54731;42.600;23.476;2023-05-10T08:26:28;12.20;;;8.63;;
67941;SDS011;54731;42.600;23.476;2023-05-10T08:28:54;23.97;;;12.33;;
67941;SDS011;54731;42.600;23.476;2023-05-10T08:31:19;20.77;;;12.47;;
67941;SDS011;54731;42.600;23.476;2023-05-10T08:33:44;31.55;;;22.00;;
67941;SDS011;54731;42.600;23.476;2023-05-10T08:36:10;26.83;;;11.73;;
67941;SDS011;54731;42.600;23.476;2023-05-10T08:38:35;28.07;;;16.60;;
67941;SDS011;54731;42.600;23.476;2023-05-10T08:41:00;17.07;;;10.30;;
67941;SDS011;54731;42.600;23.476;2023-05-10T08:43:27;24.90;;;15.25;;
67941;SDS011;54731;42.600;23.476;2023-05-10T08:45:54;15.50;;;10.68;;
67941;SDS011;54731;42.600;23.476;2023-05-10T08:48:20;12.90;;;9.35;;
67941;SDS011;54731;42.600;23.476;2023-05-10T08:50:47;14.02;;;10.05;;
67941;SDS011;54731;42.600;23.476;2023-05-10T09:05:06;16.00;;;11.05;;
67941;SDS011;54731;42.600;23.476;2023-05-10T09:07:32;13.57;;;9.50;;
67941;SDS011;54731;42.600;23.476;2023-05-10T09:09:57;13.13;;;10.77;;
67941;SDS011;54731;42.600;23.476;2023-05-10T09:12:23;15.10;;;10.87;;
67941;SDS011;54731;42.600;23.476;2023-05-10T09:14:48;16.47;;;10.77;;
67941;SDS011;54731;42.600;23.476;2023-05-10T09:17:17;20.55;;;12.77;;
67941;SDS011;54731;42.600;23.476;2023-05-10T09:19:42;19.37;;;13.00;;
67941;SDS011;54731;42.600;23.476;2023-05-10T09:22:07;25.17;;;16.27;;
67941;SDS011;54731;42.600;23.476;2023-05-10T09:24:33;24.50;;;15.43;;
67941;SDS011;54731;42.600;23.476;2023-05-10T09:26:58;16.33;;;12.20;;
67941;SDS011;54731;42.600;23.476;2023-05-10T09:29:23;18.00;;;11.50;;
67941;SDS011;54731;42.600;23.476;2023-05-10T09:31:52;14.97;;;10.40;;
67941;SDS011;54731;42.600;23.476;2023-05-10T09:34:18;17.48;;;10.40;;
67941;SDS011;54731;42.600;23.476;2023-05-10T09:36:50;9.75;;;7.93;;
67941;SDS011;54731;42.600;23.476;2023-05-10T09:39:20;13.85;;;10.80;;
67941;SDS011;54731;42.600;23.476;2023-05-10T09:41:45;13.10;;;9.97;;
67941;SDS011;54731;42.600;23.476;2023-05-10T09:44:12;18.52;;;12.35;;
67941;SDS011;54731;42.600;23.476;2023-05-10T09:46:42;16.88;;;11.57;;
67941;SDS011;54731;42.600;23.476;2023-05-10T09:49:07;21.03;;;12.07;;
67941;SDS011;54731;42.600;23.476;2023-05-10T09:51:32;15.77;;;9.20;;
67941;SDS011;54731;42.600;23.476;2023-05-10T09:54:15;14.27;;;9.63;;
67941;SDS011;54731;42.600;23.476;2023-05-10T09:56:41;11.45;;;8.10;;
67941;SDS011;54731;42.600;23.476;2023-05-10T09:59:10;9.52;;;7.57;;
67941;SDS011;54731;42.600;23.476;2023-05-10T10:01:36;9.52;;;8.30;;
67941;SDS011;54731;42.600;23.476;2023-05-10T10:04:02;8.75;;;6.30;;
67941;SDS011;54731;42.600;23.476;2023-05-10T10:06:37;7.27;;;6.07;;
67941;SDS011;54731;42.600;23.476;2023-05-10T10:09:03;8.63;;;5.60;;
67941;SDS011;54731;42.600;23.476;2023-05-10T10:11:30;9.45;;;5.38;;
67941;SDS011;54731;42.600;23.476;2023-05-10T10:13:55;8.13;;;5.43;;
67941;SDS011;54731;42.600;23.476;2023-05-10T10:16:21;7.07;;;5.53;;
67941;SDS011;54731;42.600;23.476;2023-05-10T10:18:46;7.97;;;5.18;;
67941;SDS011;54731;42.600;23.476;2023-05-10T10:21:13;10.30;;;5.43;;
67941;SDS011;54731;42.600;23.476;2023-05-10T10:23:39;11.70;;;4.95;;
67941;SDS011;54731;42.600;23.476;2023-05-10T10:26:05;7.40;;;5.97;;
67941;SDS011;54731;42.600;23.476;2023-05-10T10:29:15;9.88;;;5.72;;
67941;SDS011;54731;42.600;23.476;2023-05-10T10:31:33;10.05;;;5.78;;
67941;SDS011;54731;42.600;23.476;2023-05-10T10:34:06;7.60;;;4.72;;
67941;SDS011;54731;42.600;23.476;2023-05-10T10:36:42;8.48;;;5.60;;
67941;SDS011;54731;42.600;23.476;2023-05-10T10:39:09;9.10;;;5.10;;
67941;SDS011;54731;42.600;23.476;2023-05-10T10:41:36;10.60;;;5.68;;
67941;SDS011;54731;42.600;23.476;2023-05-10T10:47:21;10.20;;;6.03;;
67941;SDS011;54731;42.600;23.476;2023-05-10T10:54:53;19.67;;;9.52;;
67941;SDS011;54731;42.600;23.476;2023-05-10T10:57:22;45.08;;;21.05;;
67941;SDS011;54731;42.600;23.476;2023-05-10T10:59:48;31.23;;;15.10;;
67941;SDS011;54731;42.600;23.476;2023-05-10T11:05:24;13.88;;;9.43;;
67941;SDS011;54731;42.600;23.476;2023-05-10T11:10:39;14.43;;;10.73;;
67941;SDS011;54731;42.600;23.476;2023-05-10T11:13:14;16.57;;;9.03;;
67941;SDS011;54731;42.600;23.476;2023-05-10T11:15:39;12.93;;;7.45;;
67941;SDS011;54731;42.600;23.476;2023-05-10T11:18:25;13.60;;;8.88;;
67941;SDS011;54731;42.600;23.476;2023-05-10T11:20:56;11.07;;;8.13;;
67941;SDS011;54731;42.600;23.476;2023-05-10T11:23:23;13.18;;;7.63;;
67941;SDS011;54731;42.600;23.476;2023-05-10T11:25:49;13.23;;;8.03;;
67941;SDS011;54731;42.600;23.476;2023-05-10T11:28:14;9.77;;;6.65;;
67941;SDS011;54731;42.600;23.476;2023-05-10T11:30:43;13.77;;;7.27;;
67941;SDS011;54731;42.600;23.476;2023-05-10T11:33:09;14.52;;;9.45;;
67941;SDS011;54731;42.600;23.476;2023-05-10T11:35:40;14.88;;;7.22;;
67941;SDS011;54731;42.600;23.476;2023-05-10T11:38:12;8.70;;;6.32;;
67941;SDS011;54731;42.600;23.476;2023-05-10T11:40:38;8.17;;;5.70;;
67941;SDS011;54731;42.600;23.476;2023-05-10T11:43:04;8.95;;;7.40;;
67941;SDS011;54731;42.600;23.476;2023-05-10T11:45:33;16.50;;;9.07;;
67941;SDS011;54731;42.600;23.476;2023-05-10T11:47:59;14.85;;;9.32;;
67941;SDS011;54731;42.600;23.476;2023-05-10T11:50:25;11.85;;;7.85;;
67941;SDS011;54731;42.600;23.476;2023-05-10T11:52:55;8.40;;;6.80;;
67941;SDS011;54731;42.600;23.476;2023-05-10T11:55:21;14.45;;;7.55;;
67941;SDS011;54731;42.600;23.476;2023-05-10T11:57:46;13.13;;;7.97;;
67941;SDS011;54731;42.600;23.476;2023-05-10T12:00:12;14.93;;;7.38;;
67941;SDS011;54731;42.600;23.476;2023-05-10T12:02:38;9.53;;;6.50;;
67941;SDS011;54731;42.600;23.476;2023-05-10T12:05:04;13.05;;;7.00;;
67941;SDS011;54731;42.600;23.476;2023-05-10T12:07:31;19.52;;;8.27;;
67941;SDS011;54731;42.600;23.476;2023-05-10T12:12:38;13.70;;;6.25;;
67941;SDS011;54731;42.600;23.476;2023-05-10T12:15:05;12.48;;;6.88;;
67941;SDS011;54731;42.600;23.476;2023-05-10T12:17:36;11.13;;;6.53;;
67941;SDS011;54731;42.600;23.476;2023-05-10T12:20:18;17.33;;;8.45;;
67941;SDS011;54731;42.600;23.476;2023-05-10T12:22:46;12.45;;;7.07;;
67941;SDS011;54731;42.600;23.476;2023-05-10T12:25:19;8.20;;;5.35;;
67941;SDS011;54731;42.600;23.476;2023-05-10T12:27:53;15.77;;;7.75;;
67941;SDS011;54731;42.600;23.476;2023-05-10T12:30:23;10.13;;;6.50;;
67941;SDS011;54731;42.600;23.476;2023-05-10T12:32:50;11.18;;;6.30;;
67941;SDS011;54731;42.600;23.476;2023-05-10T12:35:17;24.20;;;9.77;;
67941;SDS011;54731;42.600;23.476;2023-05-10T12:37:43;20.27;;;9.80;;
67941;SDS011;54731;42.600;23.476;2023-05-10T12:40:09;16.15;;;8.65;;
67941;SDS011;54731;42.600;23.476;2023-05-10T12:42:35;10.02;;;7.25;;
67941;SDS011;54731;42.600;23.476;2023-05-10T12:45:00;20.17;;;9.93;;
67941;SDS011;54731;42.600;23.476;2023-05-10T12:47:26;11.23;;;7.67;;
67941;SDS011;54731;42.600;23.476;2023-05-10T12:49:51;13.40;;;8.90;;
67941;SDS011;54731;42.600;23.476;2023-05-10T12:52:17;11.23;;;8.67;;
67941;SDS011;54731;42.600;23.476;2023-05-10T12:54:42;13.00;;;6.47;;
67941;SDS011;54731;42.600;23.476;2023-05-10T12:57:07;8.73;;;6.77;;
67941;SDS011;54731;42.600;23.476;2023-05-10T12:59:32;15.83;;;7.50;;
67941;SDS011;54731;42.600;23.476;2023-05-10T13:01:58;11.27;;;7.33;;
67941;SDS011;54731;42.600;23.476;2023-05-10T13:04:23;13.70;;;7.73;;
67941;SDS011;54731;42.600;23.476;2023-05-10T13:06:48;10.80;;;6.63;;
67941;SDS011;54731;42.600;23.476;2023-05-10T13:09:14;11.20;;;6.63;;
67941;SDS011;54731;42.600;23.476;2023-05-10T13:11:39;11.27;;;6.83;;
67941;SDS011;54731;42.600;23.476;2023-05-10T13:14:04;22.70;;;10.83;;
67941;SDS011;54731;42.600;23.476;2023-05-10T13:16:30;12.38;;;6.90;;
67941;SDS011;54731;42.600;23.476;2023-05-10T13:18:55;18.70;;;11.33;;
67941;SDS011;54731;42.600;23.476;2023-05-10T13:21:20;11.57;;;7.83;;
67941;SDS011;54731;42.600;23.476;2023-05-10T13:23:46;21.27;;;13.57;;
67941;SDS011;54731;42.600;23.476;2023-05-10T13:26:11;12.00;;;8.27;;
67941;SDS011;54731;42.600;23.476;2023-05-10T13:28:36;12.47;;;8.57;;
67941;SDS011;54731;42.600;23.476;2023-05-10T13:31:02;15.37;;;8.53;;
67941;SDS011;54731;42.600;23.476;2023-05-10T13:33:27;8.57;;;6.10;;
67941;SDS011;54731;42.600;23.476;2023-05-10T13:35:52;9.63;;;6.37;;
67941;SDS011;54731;42.600;23.476;2023-05-10T13:38:18;21.60;;;19.40;;
67941;SDS011;54731;42.600;23.476;2023-05-10T13:40:43;12.97;;;7.60;;
67941;SDS011;54731;42.600;23.476;2023-05-10T13:43:08;10.50;;;6.73;;
67941;SDS011;54731;42.600;23.476;2023-05-10T13:45:33;14.47;;;6.73;;
67941;SDS011;54731;42.600;23.476;2023-05-10T13:47:59;11.63;;;8.27;;
67941;SDS011;54731;42.600;23.476;2023-05-10T13:50:24;15.60;;;9.57;;
67941;SDS011;54731;42.600;23.476;2023-05-10T13:52:49;10.47;;;7.00;;
67941;SDS011;54731;42.600;23.476;2023-05-10T13:55:14;12.27;;;7.70;;
67941;SDS011;54731;42.600;23.476;2023-05-10T13:57:40;11.25;;;8.00;;
67941;SDS011;54731;42.600;23.476;2023-05-10T14:00:05;11.50;;;6.00;;
67941;SDS011;54731;42.600;23.476;2023-05-10T14:02:31;7.63;;;5.22;;
67941;SDS011;54731;42.600;23.476;2023-05-10T14:04:56;11.77;;;6.63;;
67941;SDS011;54731;42.600;23.476;2023-05-10T14:07:22;14.27;;;10.13;;
67941;SDS011;54731;42.600;23.476;2023-05-10T14:09:47;11.27;;;6.97;;
67941;SDS011;54731;42.600;23.476;2023-05-10T14:12:12;11.47;;;6.47;;
67941;SDS011;54731;42.600;23.476;2023-05-10T14:14:38;9.20;;;5.80;;
67941;SDS011;54731;42.600;23.476;2023-05-10T14:17:03;10.50;;;6.10;;
67941;SDS011;54731;42.600;23.476;2023-05-10T14:19:28;8.90;;;6.40;;
67941;SDS011;54731;42.600;23.476;2023-05-10T14:21:53;12.67;;;6.67;;
67941;SDS011;54731;42.600;23.476;2023-05-10T14:24:19;10.77;;;7.63;;
67941;SDS011;54731;42.600;23.476;2023-05-10T14:26:44;10.87;;;8.20;;
67941;SDS011;54731;42.600;23.476;2023-05-10T14:29:09;9.73;;;6.50;;
67941;SDS011;54731;42.600;23.476;2023-05-10T14:31:35;8.57;;;6.50;;
67941;SDS011;54731;42.600;23.476;2023-05-10T14:34:00;8.23;;;6.73;;
67941;SDS011;54731;42.600;23.476;2023-05-10T14:36:25;8.87;;;5.60;;
67941;SDS011;54731;42.600;23.476;2023-05-10T14:38:51;9.93;;;6.23;;
67941;SDS011;54731;42.600;23.476;2023-05-10T14:41:16;14.77;;;7.17;;
67941;SDS011;54731;42.600;23.476;2023-05-10T14:43:41;11.00;;;7.47;;
67941;SDS011;54731;42.600;23.476;2023-05-10T14:46:06;10.53;;;6.93;;
67941;SDS011;54731;42.600;23.476;2023-05-10T14:48:32;8.07;;;6.23;;
67941;SDS011;54731;42.600;23.476;2023-05-10T14:50:57;12.17;;;7.40;;
67941;SDS011;54731;42.600;23.476;2023-05-10T14:53:22;10.30;;;6.47;;
67941;SDS011;54731;42.600;23.476;2023-05-10T14:55:47;20.20;;;14.00;;
67941;SDS011;54731;42.600;23.476;2023-05-10T14:58:13;16.90;;;9.73;;
67941;SDS011;54731;42.600;23.476;2023-05-10T15:00:40;8.50;;;5.57;;
67941;SDS011;54731;42.600;23.476;2023-05-10T15:03:05;7.95;;;5.95;;
67941;SDS011;54731;42.600;23.476;2023-05-10T15:05:31;8.97;;;6.37;;
67941;SDS011;54731;42.600;23.476;2023-05-10T15:07:56;35.97;;;19.40;;
67941;SDS011;54731;42.600;23.476;2023-05-10T15:10:21;10.07;;;6.70;;
67941;SDS011;54731;42.600;23.476;2023-05-10T15:12:47;13.30;;;9.07;;